createdAt,value
2019-03-30T00:00:20.977Z,100.00
2019-03-30T00:02:49.578Z,100.00
2019-03-30T00:05:19.208Z,100.00
2019-03-30T00:07:47.704Z,100.00
2019-03-30T00:10:16.347Z,100.00
2019-03-30T00:12:44.969Z,100.00
2019-03-30T00:15:13.537Z,100.00
2019-03-30T00:17:42.142Z,100.00
2019-03-30T00:20:10.829Z,100.00
2019-03-30T00:22:39.471Z,100.00
2019-03-30T00:25:08.158Z,100.00
2019-03-30T00:27:36.837Z,100.00
2019-03-30T00:30:07.253Z,100.00
2019-03-30T00:32:40.155Z,100.00
2019-03-30T00:35:08.790Z,100.00
2019-03-30T00:37:37.400Z,100.00
2019-03-30T00:40:07.050Z,100.00
2019-03-30T00:42:35.735Z,100.00
2019-03-30T00:45:06.324Z,100.00
2019-03-30T00:47:34.939Z,100.00
2019-03-30T00:50:03.656Z,100.00
2019-03-30T00:52:33.469Z,100.00
2019-03-30T00:55:01.969Z,100.00
2019-03-30T00:57:30.570Z,100.00
2019-03-30T00:59:59.828Z,100.00
2019-03-30T01:02:28.431Z,100.00
2019-03-30T01:04:56.993Z,100.00
2019-03-30T01:07:25.570Z,100.00
2019-03-30T01:09:54.138Z,100.00
2019-03-30T01:12:22.708Z,100.00
2019-03-30T01:14:51.203Z,100.00
2019-03-30T01:17:19.942Z,100.00
2019-03-30T01:20:01.936Z,100.00
2019-03-30T01:22:18.852Z,100.00
2019-03-30T01:24:47.528Z,100.00
2019-03-30T01:27:16.163Z,100.00
2019-03-30T01:29:44.819Z,100.00
2019-03-30T01:32:14.941Z,100.00
2019-03-30T01:34:43.610Z,100.00
2019-03-30T01:37:13.566Z,100.00
2019-03-30T01:39:42.244Z,100.00
2019-03-30T01:42:10.886Z,100.00
2019-03-30T01:44:39.379Z,100.00
2019-03-30T01:47:08.058Z,100.00
2019-03-30T01:49:36.668Z,100.00
2019-03-30T01:52:05.304Z,100.00
2019-03-30T01:54:33.868Z,100.00
2019-03-30T01:57:02.544Z,100.00
2019-03-30T01:59:31.040Z,100.00
2019-03-30T02:01:59.750Z,100.00
2019-03-30T02:04:28.241Z,100.00
2019-03-30T02:06:56.786Z,100.00
2019-03-30T02:09:25.357Z,100.00
2019-03-30T02:11:54.016Z,100.00
2019-03-30T02:14:22.576Z,100.00
2019-03-30T02:16:51.131Z,100.00
2019-03-30T02:19:19.920Z,100.00
2019-03-30T02:21:48.527Z,100.00
2019-03-30T02:24:17.209Z,100.00
2019-03-30T02:26:45.853Z,100.00
2019-03-30T02:29:14.422Z,100.00
2019-03-30T02:31:43.092Z,100.00
2019-03-30T02:34:11.747Z,100.00
2019-03-30T02:36:40.372Z,100.00
2019-03-30T02:39:09.006Z,100.00
2019-03-30T02:41:37.617Z,100.00
2019-03-30T02:44:06.187Z,100.00
2019-03-30T02:46:34.886Z,100.00
2019-03-30T02:49:03.501Z,100.00
2019-03-30T02:51:32.018Z,100.00
2019-03-30T02:54:00.630Z,100.00
2019-03-30T02:56:29.119Z,100.00
2019-03-30T02:58:57.725Z,100.00
2019-03-30T03:01:26.367Z,100.00
2019-03-30T03:03:54.942Z,100.00
2019-03-30T03:06:24.089Z,100.00
2019-03-30T03:08:52.642Z,100.00
2019-03-30T03:11:21.321Z,100.00
2019-03-30T03:13:49.960Z,100.00
2019-03-30T03:16:18.525Z,100.00
2019-03-30T03:18:47.103Z,100.00
2019-03-30T03:21:15.711Z,100.00
2019-03-30T03:23:44.271Z,100.00
2019-03-30T03:26:12.876Z,100.00
2019-03-30T03:28:41.441Z,100.00
2019-03-30T03:31:10.134Z,100.00
2019-03-30T03:33:38.634Z,100.00
2019-03-30T03:36:07.265Z,100.00
2019-03-30T03:38:35.939Z,100.00
2019-03-30T03:41:04.636Z,100.00
2019-03-30T03:43:33.313Z,100.00
2019-03-30T03:46:01.921Z,100.00
2019-03-30T03:48:30.411Z,100.00
2019-03-30T03:51:02.021Z,100.00
2019-03-30T03:53:31.275Z,100.00
2019-03-30T03:56:01.941Z,100.00
2019-03-30T03:58:33.776Z,100.00
2019-03-30T04:01:02.841Z,100.00
2019-03-30T04:03:33.344Z,100.00
2019-03-30T04:06:04.894Z,100.00
2019-03-30T04:08:33.568Z,100.00
2019-03-30T04:11:03.691Z,100.00
2019-03-30T04:13:32.524Z,100.00
2019-03-30T04:16:01.172Z,100.00
2019-03-30T04:18:29.797Z,100.00
2019-03-30T04:20:58.378Z,100.00
2019-03-30T04:23:26.946Z,100.00
2019-03-30T04:25:55.634Z,100.00
2019-03-30T04:28:24.249Z,100.00
2019-03-30T04:30:52.831Z,100.00
2019-03-30T04:33:21.413Z,100.00
2019-03-30T04:35:49.967Z,100.00
2019-03-30T04:38:18.662Z,100.00
2019-03-30T04:40:47.292Z,100.00
2019-03-30T04:43:15.911Z,100.00
2019-03-30T04:45:44.505Z,100.00
2019-03-30T04:48:14.655Z,100.00
2019-03-30T04:50:43.296Z,100.00
2019-03-30T04:53:11.867Z,100.00
2019-03-30T04:55:40.563Z,100.00
2019-03-30T04:58:09.658Z,100.00
2019-03-30T05:00:38.271Z,100.00
2019-03-30T05:03:06.951Z,100.00
2019-03-30T05:05:35.579Z,100.00
2019-03-30T05:08:04.214Z,100.00
2019-03-30T05:10:32.835Z,100.00
2019-03-30T05:13:01.443Z,100.00
2019-03-30T05:15:30.056Z,100.00
2019-03-30T05:17:58.624Z,100.00
2019-03-30T05:20:27.303Z,100.00
2019-03-30T05:22:55.927Z,100.00
2019-03-30T05:25:24.535Z,100.00
2019-03-30T05:27:53.097Z,100.00
2019-03-30T05:30:21.785Z,100.00
2019-03-30T05:33:04.662Z,100.00
2019-03-30T05:35:20.822Z,100.00
2019-03-30T05:37:49.383Z,100.00
2019-03-30T05:40:18.060Z,100.00
2019-03-30T05:42:46.673Z,100.00
2019-03-30T05:45:15.309Z,100.00
2019-03-30T05:47:43.917Z,100.00
2019-03-30T05:50:13.048Z,100.00
2019-03-30T05:52:41.723Z,100.00
2019-03-30T05:55:10.371Z,100.00
2019-03-30T05:57:38.997Z,100.00
2019-03-30T06:00:09.307Z,100.00
2019-03-30T06:02:37.981Z,100.00
2019-03-30T06:05:06.916Z,98.59
2019-03-30T06:07:35.512Z,96.92
2019-03-30T06:10:05.755Z,97.07
2019-03-30T06:12:37.071Z,93.96
2019-03-30T06:15:07.774Z,93.13
2019-03-30T06:17:36.316Z,92.11
2019-03-30T06:20:12.016Z,89.13
2019-03-30T06:22:40.940Z,86.27
2019-03-30T06:25:09.823Z,85.54
2019-03-30T06:27:38.442Z,82.72
2019-03-30T06:30:18.840Z,81.65
2019-03-30T06:32:47.524Z,81.95
2019-03-30T06:35:16.188Z,80.44
2019-03-30T06:37:44.820Z,77.70
2019-03-30T06:40:13.928Z,79.13
2019-03-30T06:42:42.601Z,74.86
2019-03-30T06:45:11.334Z,70.97
2019-03-30T06:47:41.157Z,73.98
2019-03-30T06:50:15.959Z,75.07
2019-03-30T06:52:56.754Z,74.83
2019-03-30T06:55:15.087Z,72.72
2019-03-30T06:57:43.715Z,69.23
2019-03-30T07:00:12.617Z,65.30
2019-03-30T07:02:42.716Z,65.15
2019-03-30T07:05:11.353Z,65.19
2019-03-30T07:07:43.861Z,62.78
2019-03-30T07:10:12.491Z,59.96
2019-03-30T07:12:41.875Z,60.23
2019-03-30T07:15:10.908Z,59.60
2019-03-30T07:17:45.250Z,58.66
2019-03-30T07:20:19.765Z,60.88
2019-03-30T07:22:51.153Z,56.45
2019-03-30T07:25:18.692Z,55.82
2019-03-30T07:27:47.184Z,55.95
2019-03-30T07:30:15.885Z,56.33
2019-03-30T07:32:44.518Z,57.46
2019-03-30T07:35:13.247Z,56.43
2019-03-30T07:37:45.594Z,57.24
2019-03-30T07:40:14.284Z,55.14
2019-03-30T07:42:42.957Z,54.82
2019-03-30T07:45:11.591Z,53.18
2019-03-30T07:47:40.211Z,53.79
2019-03-30T07:50:10.001Z,54.40
2019-03-30T07:52:38.501Z,56.28
2019-03-30T07:55:07.811Z,54.82
2019-03-30T07:57:36.425Z,54.36
2019-03-30T08:00:08.551Z,55.90
2019-03-30T08:02:37.189Z,54.08
2019-03-30T08:05:07.348Z,52.06
2019-03-30T08:07:36.019Z,50.37
2019-03-30T08:10:06.168Z,49.77
2019-03-30T08:12:34.878Z,48.53
2019-03-30T08:15:04.450Z,48.45
2019-03-30T08:17:33.081Z,47.72
2019-03-30T08:20:01.757Z,46.97
2019-03-30T08:22:30.259Z,45.51
2019-03-30T08:24:58.868Z,45.77
2019-03-30T08:27:27.433Z,45.44
2019-03-30T08:29:56.076Z,43.26
2019-03-30T08:32:24.778Z,41.65
2019-03-30T08:34:53.298Z,40.25
2019-03-30T08:37:22.079Z,39.72
2019-03-30T08:39:50.638Z,38.35
2019-03-30T08:42:20.051Z,36.81
2019-03-30T08:44:48.772Z,36.58
2019-03-30T08:47:17.416Z,37.37
2019-03-30T08:49:46.100Z,38.19
2019-03-30T08:52:14.955Z,37.31
2019-03-30T08:54:43.628Z,38.14
2019-03-30T08:57:16.278Z,37.70
2019-03-30T08:59:45.070Z,38.53
2019-03-30T09:02:13.699Z,39.61
2019-03-30T09:04:42.261Z,38.70
2019-03-30T09:07:10.939Z,40.38
2019-03-30T09:09:39.580Z,41.24
2019-03-30T09:12:08.250Z,41.20
2019-03-30T09:14:36.806Z,42.04
2019-03-30T09:17:05.410Z,41.02
2019-03-30T09:19:33.975Z,41.75
2019-03-30T09:22:02.589Z,41.81
2019-03-30T09:24:31.151Z,42.07
2019-03-30T09:26:59.692Z,43.28
2019-03-30T09:29:28.355Z,42.01
2019-03-30T09:31:56.917Z,41.23
2019-03-30T09:34:25.612Z,42.60
2019-03-30T09:36:54.289Z,41.39
2019-03-30T09:39:23.015Z,40.28
2019-03-30T09:41:52.573Z,39.16
2019-03-30T09:44:21.301Z,39.66
2019-03-30T09:46:49.939Z,39.73
2019-03-30T09:49:18.533Z,41.05
2019-03-30T09:51:47.139Z,41.27
2019-03-30T09:54:23.509Z,41.77
2019-03-30T09:56:45.919Z,40.98
2019-03-30T09:59:14.529Z,40.64
2019-03-30T10:01:43.154Z,39.73
2019-03-30T10:04:11.796Z,39.57
2019-03-30T10:06:40.397Z,40.01
2019-03-30T10:09:09.066Z,39.40
2019-03-30T10:11:37.628Z,39.19
2019-03-30T10:14:06.303Z,38.90
2019-03-30T10:16:34.864Z,39.11
2019-03-30T10:19:03.492Z,38.39
2019-03-30T10:21:32.100Z,38.44
2019-03-30T10:24:00.729Z,39.92
2019-03-30T10:26:29.326Z,38.71
2019-03-30T10:28:57.965Z,38.25
2019-03-30T10:31:26.708Z,36.63
2019-03-30T10:33:55.278Z,36.63
2019-03-30T10:36:24.019Z,35.34
2019-03-30T10:38:52.646Z,33.67
2019-03-30T10:41:21.242Z,30.37
2019-03-30T10:43:49.887Z,26.56
2019-03-30T10:46:18.485Z,29.47
2019-03-30T10:48:47.129Z,31.91
2019-03-30T10:51:15.874Z,32.56
2019-03-30T10:53:44.580Z,33.43
2019-03-30T10:56:13.182Z,36.04
2019-03-30T10:58:41.786Z,35.67
2019-03-30T11:01:10.410Z,32.02
2019-03-30T11:03:39.016Z,27.20
2019-03-30T11:06:07.725Z,28.63
2019-03-30T11:08:36.360Z,29.37
2019-03-30T11:11:05.030Z,31.29
2019-03-30T11:13:33.711Z,29.84
2019-03-30T11:16:02.338Z,29.05
2019-03-30T11:18:31.095Z,28.88
2019-03-30T11:20:59.721Z,28.89
2019-03-30T11:23:28.468Z,26.77
2019-03-30T11:25:57.026Z,26.81
2019-03-30T11:28:25.695Z,26.84
2019-03-30T11:30:54.393Z,26.86
2019-03-30T11:33:23.095Z,26.03
2019-03-30T11:35:51.808Z,25.08
2019-03-30T11:38:20.441Z,24.85
2019-03-30T11:40:49.161Z,23.71
2019-03-30T11:43:17.810Z,25.75
2019-03-30T11:45:46.555Z,26.96
2019-03-30T11:48:15.356Z,29.17
2019-03-30T11:50:44.108Z,30.51
2019-03-30T11:53:12.807Z,31.45
2019-03-30T11:55:41.552Z,29.68
2019-03-30T11:58:10.181Z,25.99
2019-03-30T12:00:41.694Z,23.13
2019-03-30T12:03:10.403Z,21.84
2019-03-30T12:05:39.148Z,20.87
2019-03-30T12:08:07.944Z,20.13
2019-03-30T12:10:36.755Z,21.47
2019-03-30T12:13:05.476Z,19.58
2019-03-30T12:15:34.275Z,21.84
2019-03-30T12:18:03.024Z,21.46
2019-03-30T12:20:31.753Z,21.32
2019-03-30T12:23:00.451Z,23.11
2019-03-30T12:25:35.295Z,23.03
2019-03-30T12:27:59.815Z,24.10
2019-03-30T12:30:28.555Z,23.36
2019-03-30T12:32:57.276Z,21.79
2019-03-30T12:35:26.006Z,22.85
2019-03-30T12:37:54.713Z,22.13
2019-03-30T12:40:23.431Z,22.96
2019-03-30T12:42:52.131Z,22.50
2019-03-30T12:45:20.805Z,20.45
2019-03-30T12:47:49.508Z,19.98
2019-03-30T12:50:18.178Z,20.47
2019-03-30T12:52:46.874Z,21.14
2019-03-30T12:55:15.615Z,20.82
2019-03-30T12:57:44.320Z,20.41
2019-03-30T13:00:13.675Z,19.98
2019-03-30T13:02:42.386Z,21.05
2019-03-30T13:05:11.119Z,21.20
2019-03-30T13:07:39.823Z,20.23
2019-03-30T13:10:09.085Z,19.71
2019-03-30T13:12:37.831Z,19.45
2019-03-30T13:15:08.234Z,19.19
2019-03-30T13:17:36.977Z,20.90
2019-03-30T13:20:07.079Z,20.59
2019-03-30T13:22:35.779Z,19.78
2019-03-30T13:25:05.595Z,19.67
2019-03-30T13:27:34.592Z,20.71
2019-03-30T13:30:04.496Z,21.05
2019-03-30T13:32:33.197Z,20.10
2019-03-30T13:35:01.937Z,20.46
2019-03-30T13:37:30.639Z,20.09
2019-03-30T13:39:59.339Z,21.21
2019-03-30T13:42:28.048Z,21.73
2019-03-30T13:44:56.740Z,21.03
2019-03-30T13:47:25.462Z,22.14
2019-03-30T13:49:54.165Z,21.37
2019-03-30T13:52:22.902Z,22.37
2019-03-30T13:54:51.608Z,22.97
2019-03-30T13:57:20.351Z,23.16
2019-03-30T13:59:49.049Z,23.78
2019-03-30T14:02:17.875Z,23.21
2019-03-30T14:04:46.586Z,23.16
2019-03-30T14:07:15.326Z,22.34
2019-03-30T14:09:44.044Z,23.86
2019-03-30T14:12:12.742Z,23.95
2019-03-30T14:14:41.481Z,24.07
2019-03-30T14:17:10.172Z,22.61
2019-03-30T14:19:38.918Z,21.59
2019-03-30T14:22:07.628Z,23.01
2019-03-30T14:24:36.319Z,23.80
2019-03-30T14:27:05.055Z,24.05
2019-03-30T14:29:33.772Z,25.71
2019-03-30T14:32:02.473Z,26.57
2019-03-30T14:34:31.188Z,25.16
2019-03-30T14:36:59.929Z,23.00
2019-03-30T14:39:28.624Z,23.22
2019-03-30T14:41:57.356Z,24.08
2019-03-30T14:44:26.165Z,23.51
2019-03-30T14:46:55.057Z,25.61
2019-03-30T14:49:23.760Z,24.93
2019-03-30T14:51:52.454Z,25.85
2019-03-30T14:54:21.161Z,25.70
2019-03-30T14:56:49.860Z,25.38
2019-03-30T14:59:18.552Z,26.91
2019-03-30T15:01:47.446Z,25.91
2019-03-30T15:04:16.296Z,25.52
2019-03-30T15:06:44.998Z,25.30
2019-03-30T15:09:13.921Z,26.13
2019-03-30T15:11:45.886Z,26.73
2019-03-30T15:14:14.832Z,26.25
2019-03-30T15:16:43.838Z,26.14
2019-03-30T15:19:12.799Z,25.85
2019-03-30T15:21:41.787Z,25.98
2019-03-30T15:24:10.823Z,26.19
2019-03-30T15:26:39.624Z,26.60
2019-03-30T15:29:08.363Z,26.30
2019-03-30T15:31:37.357Z,26.32
2019-03-30T15:34:06.367Z,26.69
2019-03-30T15:36:35.404Z,27.37
2019-03-30T15:39:05.540Z,26.80
2019-03-30T15:41:34.384Z,27.11
2019-03-30T15:44:03.287Z,27.67
2019-03-30T15:46:32.071Z,28.91
2019-03-30T15:49:00.814Z,28.91
2019-03-30T15:51:29.821Z,28.67
2019-03-30T15:53:58.827Z,29.50
2019-03-30T15:56:27.723Z,29.98
2019-03-30T15:58:56.426Z,30.51
2019-03-30T16:01:25.221Z,30.96
2019-03-30T16:03:54.172Z,31.18
2019-03-30T16:06:22.965Z,31.50
2019-03-30T16:08:51.723Z,31.92
2019-03-30T16:11:22.029Z,32.35
2019-03-30T16:13:50.858Z,32.99
2019-03-30T16:16:19.637Z,33.39
2019-03-30T16:18:48.345Z,34.03
2019-03-30T16:21:17.389Z,35.09
2019-03-30T16:23:46.390Z,36.60
2019-03-30T16:26:15.544Z,36.60
2019-03-30T16:28:44.584Z,37.97
2019-03-30T16:31:13.579Z,37.97
2019-03-30T16:33:42.702Z,38.82
2019-03-30T16:36:11.701Z,39.86
2019-03-30T16:38:40.713Z,40.57
2019-03-30T16:41:09.766Z,41.40
2019-03-30T16:43:38.848Z,42.31
2019-03-30T16:46:07.852Z,43.27
2019-03-30T16:48:36.857Z,43.87
2019-03-30T16:51:05.964Z,44.73
2019-03-30T16:53:35.013Z,45.42
2019-03-30T16:56:04.061Z,46.27
2019-03-30T16:58:33.075Z,47.13
2019-03-30T17:01:02.179Z,47.54
2019-03-30T17:03:31.220Z,48.02
2019-03-30T17:06:00.219Z,49.12
2019-03-30T17:08:29.265Z,51.40
2019-03-30T17:10:58.262Z,53.84
2019-03-30T17:13:27.310Z,54.90
2019-03-30T17:15:58.478Z,54.67
2019-03-30T17:18:27.987Z,57.26
2019-03-30T17:20:57.028Z,60.38
2019-03-30T17:23:32.160Z,61.22
2019-03-30T17:26:01.203Z,62.66
2019-03-30T17:28:30.208Z,65.02
2019-03-30T17:30:59.259Z,68.20
2019-03-30T17:33:29.302Z,67.87
2019-03-30T17:35:58.314Z,66.28
2019-03-30T17:38:27.376Z,64.53
2019-03-30T17:40:56.378Z,65.82
2019-03-30T17:43:25.387Z,65.19
2019-03-30T17:45:54.404Z,65.85
2019-03-30T17:48:23.415Z,67.06
2019-03-30T17:50:52.418Z,70.20
2019-03-30T17:53:21.466Z,69.70
2019-03-30T17:55:50.498Z,70.36
2019-03-30T17:58:19.556Z,72.24
2019-03-30T18:00:48.574Z,74.42
2019-03-30T18:03:17.594Z,74.41
2019-03-30T18:05:47.530Z,75.23
2019-03-30T18:08:16.559Z,78.61
2019-03-30T18:10:45.601Z,78.97
2019-03-30T18:13:14.667Z,79.54
2019-03-30T18:15:43.795Z,78.52
2019-03-30T18:18:12.953Z,80.99
2019-03-30T18:20:41.975Z,82.50
2019-03-30T18:23:11.030Z,82.98
2019-03-30T18:25:40.078Z,81.41
2019-03-30T18:28:09.103Z,82.34
2019-03-30T18:30:39.917Z,80.88
2019-03-30T18:33:09.144Z,82.32
2019-03-30T18:35:42.998Z,83.52
2019-03-30T18:38:13.115Z,83.78
2019-03-30T18:40:42.713Z,84.15
2019-03-30T18:43:11.955Z,84.94
2019-03-30T18:45:41.084Z,86.47
2019-03-30T18:48:14.523Z,87.14
2019-03-30T18:50:44.110Z,87.84
2019-03-30T18:53:17.536Z,88.43
2019-03-30T18:55:46.667Z,88.01
2019-03-30T18:58:15.738Z,88.43
2019-03-30T19:00:44.887Z,87.79
2019-03-30T19:03:14.004Z,88.13
2019-03-30T19:05:43.023Z,87.67
2019-03-30T19:08:12.141Z,87.48
2019-03-30T19:10:41.162Z,86.69
2019-03-30T19:13:10.230Z,86.73
2019-03-30T19:15:39.342Z,87.37
2019-03-30T19:18:08.388Z,85.85
2019-03-30T19:20:37.442Z,85.76
2019-03-30T19:23:06.520Z,84.83
2019-03-30T19:25:35.625Z,84.39
2019-03-30T19:28:04.881Z,83.74
2019-03-30T19:30:33.943Z,83.86
2019-03-30T19:33:03.054Z,83.08
2019-03-30T19:35:32.175Z,81.84
2019-03-30T19:38:01.331Z,82.44
2019-03-30T19:40:30.442Z,82.86
2019-03-30T19:43:00.835Z,82.49
2019-03-30T19:45:30.069Z,82.79
2019-03-30T19:47:59.059Z,82.76
2019-03-30T19:50:28.137Z,82.64
2019-03-30T19:52:57.157Z,82.66
2019-03-30T19:55:26.199Z,83.14
2019-03-30T19:57:55.202Z,83.51
2019-03-30T20:00:27.469Z,84.42
2019-03-30T20:02:56.524Z,85.53
2019-03-30T20:05:28.985Z,85.42
2019-03-30T20:08:11.444Z,84.38
2019-03-30T20:10:28.845Z,82.70
2019-03-30T20:12:57.886Z,82.00
2019-03-30T20:15:26.990Z,83.94
2019-03-30T20:17:56.108Z,85.43
2019-03-30T20:20:25.138Z,86.99
2019-03-30T20:22:54.146Z,87.79
2019-03-30T20:25:26.315Z,87.66
2019-03-30T20:27:55.312Z,87.64
2019-03-30T20:30:24.663Z,98.66
2019-03-30T20:32:53.655Z,100.00
2019-03-30T20:35:22.657Z,100.00
2019-03-30T20:37:51.700Z,100.00
2019-03-30T20:40:24.006Z,100.00
2019-03-30T20:42:53.050Z,100.00
2019-03-30T20:45:22.156Z,100.00
2019-03-30T20:47:51.192Z,100.00
2019-03-30T20:50:20.315Z,100.00
2019-03-30T20:52:49.328Z,100.00
2019-03-30T20:55:18.237Z,100.00
2019-03-30T20:57:47.141Z,100.00
2019-03-30T21:00:17.597Z,100.00
2019-03-30T21:02:46.295Z,100.00
2019-03-30T21:05:15.351Z,100.00
2019-03-30T21:07:44.120Z,100.00
2019-03-30T21:10:12.921Z,100.00
2019-03-30T21:12:41.715Z,100.00
2019-03-30T21:15:12.008Z,100.00
2019-03-30T21:17:40.710Z,100.00
2019-03-30T21:20:10.025Z,100.00
2019-03-30T21:22:38.841Z,100.00
2019-03-30T21:25:07.646Z,100.00
2019-03-30T21:27:36.456Z,100.00
2019-03-30T21:30:09.990Z,100.00
2019-03-30T21:32:38.924Z,100.00
2019-03-30T21:35:08.420Z,100.00
2019-03-30T21:37:37.171Z,100.00
2019-03-30T21:40:07.086Z,100.00
2019-03-30T21:42:35.828Z,100.00
2019-03-30T21:45:06.337Z,100.00
2019-03-30T21:47:35.087Z,100.00
2019-03-30T21:50:06.674Z,100.00
2019-03-30T21:52:35.354Z,100.00
2019-03-30T21:55:05.827Z,100.00
2019-03-30T21:57:34.451Z,100.00
2019-03-30T22:00:09.906Z,100.00
2019-03-30T22:02:33.577Z,100.00
2019-03-30T22:05:02.129Z,100.00
2019-03-30T22:07:31.191Z,100.00
2019-03-30T22:10:00.009Z,100.00
2019-03-30T22:12:32.633Z,100.00
2019-03-30T22:15:01.424Z,100.00
2019-03-30T22:17:29.919Z,100.00
2019-03-30T22:19:58.608Z,100.00
2019-03-30T22:22:27.291Z,100.00
2019-03-30T22:24:55.857Z,100.00
2019-03-30T22:27:24.542Z,100.00
2019-03-30T22:29:53.212Z,100.00
2019-03-30T22:32:21.833Z,100.00
2019-03-30T22:34:50.400Z,100.00
2019-03-30T22:37:19.012Z,100.00
2019-03-30T22:39:47.707Z,100.00
2019-03-30T22:42:16.336Z,100.00
2019-03-30T22:44:44.835Z,100.00
2019-03-30T22:47:14.758Z,100.00
2019-03-30T22:49:43.455Z,100.00
2019-03-30T22:52:12.096Z,100.00
2019-03-30T22:54:40.664Z,100.00
2019-03-30T22:57:09.241Z,100.00
2019-03-30T22:59:37.879Z,100.00
2019-03-30T23:02:06.621Z,100.00
2019-03-30T23:04:35.173Z,100.00
2019-03-30T23:07:03.885Z,100.00
2019-03-30T23:09:32.457Z,100.00
2019-03-30T23:12:01.220Z,100.00
2019-03-30T23:14:31.105Z,100.00
2019-03-30T23:16:59.685Z,100.00
2019-03-30T23:19:28.342Z,100.00
2019-03-30T23:22:01.285Z,100.00
2019-03-30T23:24:29.779Z,100.00
2019-03-30T23:26:58.466Z,100.00
2019-03-30T23:29:27.065Z,100.00
2019-03-30T23:31:55.696Z,100.00
2019-03-30T23:34:24.303Z,100.00
2019-03-30T23:36:52.883Z,100.00
2019-03-30T23:39:21.514Z,100.00
2019-03-30T23:41:50.117Z,100.00
2019-03-30T23:44:18.763Z,100.00
2019-03-30T23:46:47.409Z,100.00
2019-03-30T23:49:15.986Z,100.00
2019-03-30T23:51:46.107Z,100.00
2019-03-30T23:54:16.545Z,100.00
2019-03-30T23:56:45.182Z,100.00
2019-03-30T23:59:13.763Z,100.00
